sensor_id;sensor_type;location;lat;lon;timestamp;P1;durP1;ratioP1;P2;durP2;ratioP2
31424;SDS011;18054;51.572;7.372;2024-03-22T00:01:43;50.38;;;28.05;;
31424;SDS011;18054;51.572;7.372;2024-03-22T00:04:11;50.60;;;28.30;;
31424;SDS011;18054;51.572;7.372;2024-03-22T00:06:37;53.25;;;30.13;;
31424;SDS011;18054;51.572;7.372;2024-03-22T00:09:03;53.20;;;29.38;;
31424;SDS011;18054;51.572;7.372;2024-03-22T00:11:29;51.85;;;28.77;;
31424;SDS011;18054;51.572;7.372;2024-03-22T00:13:56;58.17;;;30.13;;
31424;SDS011;18054;51.572;7.372;2024-03-22T00:16:21;52.92;;;29.33;;
31424;SDS011;18054;51.572;7.372;2024-03-22T00:18:48;53.38;;;28.30;;
31424;SDS011;18054;51.572;7.372;2024-03-22T00:21:15;50.80;;;28.17;;
31424;SDS011;18054;51.572;7.372;2024-03-22T00:26:07;56.53;;;27.70;;
31424;SDS011;18054;51.572;7.372;2024-03-22T00:28:36;55.47;;;27.75;;
31424;SDS011;18054;51.572;7.372;2024-03-22T00:31:02;50.28;;;26.73;;
31424;SDS011;18054;51.572;7.372;2024-03-22T00:33:28;49.00;;;25.85;;
31424;SDS011;18054;51.572;7.372;2024-03-22T00:35:55;50.97;;;25.70;;
31424;SDS011;18054;51.572;7.372;2024-03-22T00:38:22;54.50;;;26.23;;
31424;SDS011;18054;51.572;7.372;2024-03-22T00:43:14;56.08;;;26.88;;
31424;SDS011;18054;51.572;7.372;2024-03-22T00:45:40;55.50;;;25.27;;
31424;SDS011;18054;51.572;7.372;2024-03-22T00:48:06;53.72;;;26.88;;
31424;SDS011;18054;51.572;7.372;2024-03-22T00:50:33;53.58;;;27.83;;
31424;SDS011;18054;51.572;7.372;2024-03-22T00:52:59;56.38;;;27.75;;
31424;SDS011;18054;51.572;7.372;2024-03-22T00:55:29;59.35;;;27.55;;
31424;SDS011;18054;51.572;7.372;2024-03-22T00:57:54;57.05;;;27.15;;
31424;SDS011;18054;51.572;7.372;2024-03-22T01:02:34;48.78;;;25.88;;
31424;SDS011;18054;51.572;7.372;2024-03-22T01:05:01;51.95;;;26.80;;
31424;SDS011;18054;51.572;7.372;2024-03-22T01:07:26;57.92;;;25.92;;
31424;SDS011;18054;51.572;7.372;2024-03-22T01:09:53;49.42;;;25.58;;
31424;SDS011;18054;51.572;7.372;2024-03-22T01:12:18;56.25;;;27.75;;
31424;SDS011;18054;51.572;7.372;2024-03-22T01:14:49;54.05;;;26.20;;
31424;SDS011;18054;51.572;7.372;2024-03-22T01:17:17;51.55;;;27.08;;
31424;SDS011;18054;51.572;7.372;2024-03-22T01:19:46;51.42;;;25.98;;
31424;SDS011;18054;51.572;7.372;2024-03-22T01:22:11;58.17;;;27.13;;
31424;SDS011;18054;51.572;7.372;2024-03-22T01:24:38;60.33;;;27.58;;
31424;SDS011;18054;51.572;7.372;2024-03-22T01:27:04;48.70;;;24.48;;
31424;SDS011;18054;51.572;7.372;2024-03-22T01:29:30;51.58;;;26.33;;
31424;SDS011;18054;51.572;7.372;2024-03-22T01:31:57;57.78;;;28.40;;
31424;SDS011;18054;51.572;7.372;2024-03-22T01:34:24;50.30;;;25.77;;
31424;SDS011;18054;51.572;7.372;2024-03-22T01:36:51;55.30;;;28.20;;
31424;SDS011;18054;51.572;7.372;2024-03-22T01:41:43;48.83;;;25.02;;
31424;SDS011;18054;51.572;7.372;2024-03-22T01:44:10;51.92;;;25.05;;
31424;SDS011;18054;51.572;7.372;2024-03-22T01:46:39;55.47;;;26.52;;
31424;SDS011;18054;51.572;7.372;2024-03-22T01:49:07;53.85;;;25.80;;
31424;SDS011;18054;51.572;7.372;2024-03-22T01:51:33;48.33;;;25.05;;
31424;SDS011;18054;51.572;7.372;2024-03-22T01:54:01;55.03;;;24.98;;
31424;SDS011;18054;51.572;7.372;2024-03-22T01:56:27;48.03;;;24.15;;
31424;SDS011;18054;51.572;7.372;2024-03-22T01:58:54;58.80;;;26.50;;
31424;SDS011;18054;51.572;7.372;2024-03-22T02:01:20;47.70;;;24.33;;
31424;SDS011;18054;51.572;7.372;2024-03-22T02:03:46;49.30;;;25.00;;
31424;SDS011;18054;51.572;7.372;2024-03-22T02:06:12;48.53;;;24.85;;
31424;SDS011;18054;51.572;7.372;2024-03-22T02:08:39;53.15;;;25.42;;
31424;SDS011;18054;51.572;7.372;2024-03-22T02:11:08;46.60;;;23.90;;
31424;SDS011;18054;51.572;7.372;2024-03-22T02:13:35;47.83;;;24.02;;
31424;SDS011;18054;51.572;7.372;2024-03-22T02:16:02;51.38;;;24.52;;
31424;SDS011;18054;51.572;7.372;2024-03-22T02:20:54;50.80;;;25.80;;
31424;SDS011;18054;51.572;7.372;2024-03-22T02:23:26;44.78;;;23.88;;
31424;SDS011;18054;51.572;7.372;2024-03-22T02:25:52;48.47;;;25.70;;
31424;SDS011;18054;51.572;7.372;2024-03-22T02:28:18;49.05;;;22.40;;
31424;SDS011;18054;51.572;7.372;2024-03-22T02:30:44;49.70;;;23.10;;
31424;SDS011;18054;51.572;7.372;2024-03-22T02:33:11;47.47;;;22.60;;
31424;SDS011;18054;51.572;7.372;2024-03-22T02:35:36;45.78;;;22.77;;
31424;SDS011;18054;51.572;7.372;2024-03-22T02:38:03;48.25;;;21.35;;
31424;SDS011;18054;51.572;7.372;2024-03-22T02:40:30;42.35;;;20.88;;
31424;SDS011;18054;51.572;7.372;2024-03-22T02:45:22;43.25;;;21.80;;
31424;SDS011;18054;51.572;7.372;2024-03-22T02:47:49;48.22;;;21.08;;
31424;SDS011;18054;51.572;7.372;2024-03-22T02:50:14;44.58;;;21.48;;
31424;SDS011;18054;51.572;7.372;2024-03-22T02:52:41;38.80;;;19.90;;
31424;SDS011;18054;51.572;7.372;2024-03-22T02:55:07;43.88;;;21.50;;
31424;SDS011;18054;51.572;7.372;2024-03-22T02:57:35;39.03;;;20.10;;
31424;SDS011;18054;51.572;7.372;2024-03-22T03:00:01;43.90;;;21.40;;
31424;SDS011;18054;51.572;7.372;2024-03-22T03:02:28;41.33;;;20.92;;
31424;SDS011;18054;51.572;7.372;2024-03-22T03:04:54;41.33;;;21.42;;
31424;SDS011;18054;51.572;7.372;2024-03-22T03:07:21;40.95;;;20.08;;
31424;SDS011;18054;51.572;7.372;2024-03-22T03:09:46;42.70;;;20.63;;
31424;SDS011;18054;51.572;7.372;2024-03-22T03:12:13;41.35;;;19.60;;
31424;SDS011;18054;51.572;7.372;2024-03-22T03:14:40;41.38;;;21.35;;
31424;SDS011;18054;51.572;7.372;2024-03-22T03:17:07;43.65;;;20.10;;
31424;SDS011;18054;51.572;7.372;2024-03-22T03:19:33;46.08;;;20.98;;
31424;SDS011;18054;51.572;7.372;2024-03-22T03:21:59;42.60;;;21.50;;
31424;SDS011;18054;51.572;7.372;2024-03-22T03:24:25;42.03;;;21.67;;
31424;SDS011;18054;51.572;7.372;2024-03-22T03:26:51;38.78;;;19.80;;
31424;SDS011;18054;51.572;7.372;2024-03-22T03:29:17;37.58;;;20.25;;
31424;SDS011;18054;51.572;7.372;2024-03-22T03:31:45;42.88;;;21.27;;
31424;SDS011;18054;51.572;7.372;2024-03-22T03:34:11;48.83;;;22.38;;
31424;SDS011;18054;51.572;7.372;2024-03-22T03:36:37;44.75;;;21.60;;
31424;SDS011;18054;51.572;7.372;2024-03-22T03:39:03;45.17;;;21.85;;
31424;SDS011;18054;51.572;7.372;2024-03-22T03:41:29;49.15;;;21.67;;
31424;SDS011;18054;51.572;7.372;2024-03-22T03:43:56;42.00;;;21.10;;
31424;SDS011;18054;51.572;7.372;2024-03-22T03:46:21;36.78;;;20.75;;
31424;SDS011;18054;51.572;7.372;2024-03-22T03:48:49;41.95;;;22.08;;
31424;SDS011;18054;51.572;7.372;2024-03-22T03:51:15;40.95;;;21.33;;
31424;SDS011;18054;51.572;7.372;2024-03-22T03:53:41;45.10;;;21.08;;
31424;SDS011;18054;51.572;7.372;2024-03-22T03:56:07;43.60;;;21.20;;
31424;SDS011;18054;51.572;7.372;2024-03-22T03:58:33;38.47;;;20.27;;
31424;SDS011;18054;51.572;7.372;2024-03-22T04:01:04;40.95;;;22.45;;
31424;SDS011;18054;51.572;7.372;2024-03-22T04:03:31;43.55;;;22.75;;
31424;SDS011;18054;51.572;7.372;2024-03-22T04:05:58;51.45;;;22.75;;
31424;SDS011;18054;51.572;7.372;2024-03-22T04:08:24;51.92;;;23.10;;
31424;SDS011;18054;51.572;7.372;2024-03-22T04:10:51;48.25;;;21.67;;
31424;SDS011;18054;51.572;7.372;2024-03-22T04:13:18;45.85;;;22.20;;
31424;SDS011;18054;51.572;7.372;2024-03-22T04:15:43;47.72;;;21.85;;
31424;SDS011;18054;51.572;7.372;2024-03-22T04:18:10;45.80;;;21.73;;
31424;SDS011;18054;51.572;7.372;2024-03-22T04:20:35;47.63;;;23.30;;
31424;SDS011;18054;51.572;7.372;2024-03-22T04:23:03;50.35;;;21.83;;
31424;SDS011;18054;51.572;7.372;2024-03-22T04:25:31;48.13;;;22.67;;
31424;SDS011;18054;51.572;7.372;2024-03-22T04:27:58;43.13;;;22.13;;
31424;SDS011;18054;51.572;7.372;2024-03-22T04:30:23;46.58;;;23.48;;
31424;SDS011;18054;51.572;7.372;2024-03-22T04:32:51;44.47;;;23.25;;
31424;SDS011;18054;51.572;7.372;2024-03-22T04:35:16;39.45;;;21.70;;
31424;SDS011;18054;51.572;7.372;2024-03-22T04:37:43;51.97;;;23.35;;
31424;SDS011;18054;51.572;7.372;2024-03-22T04:40:12;41.22;;;21.67;;
31424;SDS011;18054;51.572;7.372;2024-03-22T04:42:38;38.92;;;20.25;;
31424;SDS011;18054;51.572;7.372;2024-03-22T04:45:05;42.50;;;20.45;;
31424;SDS011;18054;51.572;7.372;2024-03-22T04:47:32;42.83;;;21.10;;
31424;SDS011;18054;51.572;7.372;2024-03-22T04:49:57;42.40;;;21.70;;
31424;SDS011;18054;51.572;7.372;2024-03-22T04:52:24;42.67;;;19.48;;
31424;SDS011;18054;51.572;7.372;2024-03-22T04:54:50;40.05;;;20.20;;
31424;SDS011;18054;51.572;7.372;2024-03-22T04:57:17;41.17;;;19.95;;
31424;SDS011;18054;51.572;7.372;2024-03-22T04:59:44;40.22;;;18.70;;
31424;SDS011;18054;51.572;7.372;2024-03-22T05:02:10;36.50;;;19.67;;
31424;SDS011;18054;51.572;7.372;2024-03-22T05:04:36;30.58;;;17.80;;
31424;SDS011;18054;51.572;7.372;2024-03-22T05:07:02;33.60;;;17.75;;
31424;SDS011;18054;51.572;7.372;2024-03-22T05:09:29;30.20;;;16.63;;
31424;SDS011;18054;51.572;7.372;2024-03-22T05:11:57;32.03;;;18.20;;
31424;SDS011;18054;51.572;7.372;2024-03-22T05:14:25;34.33;;;17.25;;
31424;SDS011;18054;51.572;7.372;2024-03-22T05:16:50;43.63;;;18.10;;
31424;SDS011;18054;51.572;7.372;2024-03-22T05:19:17;33.55;;;16.45;;
31424;SDS011;18054;51.572;7.372;2024-03-22T05:21:43;34.90;;;17.75;;
31424;SDS011;18054;51.572;7.372;2024-03-22T05:24:10;34.53;;;17.52;;
31424;SDS011;18054;51.572;7.372;2024-03-22T05:26:35;38.05;;;16.73;;
31424;SDS011;18054;51.572;7.372;2024-03-22T05:29:02;34.38;;;17.75;;
31424;SDS011;18054;51.572;7.372;2024-03-22T05:31:29;38.15;;;17.75;;
31424;SDS011;18054;51.572;7.372;2024-03-22T05:33:57;31.13;;;17.30;;
31424;SDS011;18054;51.572;7.372;2024-03-22T05:36:22;33.35;;;16.35;;
31424;SDS011;18054;51.572;7.372;2024-03-22T05:38:49;32.20;;;17.52;;
31424;SDS011;18054;51.572;7.372;2024-03-22T05:41:14;36.25;;;18.05;;
31424;SDS011;18054;51.572;7.372;2024-03-22T05:43:41;30.92;;;17.08;;
31424;SDS011;18054;51.572;7.372;2024-03-22T05:46:07;35.53;;;17.15;;
31424;SDS011;18054;51.572;7.372;2024-03-22T05:48:34;35.35;;;17.63;;
31424;SDS011;18054;51.572;7.372;2024-03-22T05:51:00;35.27;;;16.97;;
31424;SDS011;18054;51.572;7.372;2024-03-22T05:53:27;38.78;;;16.85;;
31424;SDS011;18054;51.572;7.372;2024-03-22T05:55:52;34.75;;;16.40;;
31424;SDS011;18054;51.572;7.372;2024-03-22T05:58:19;34.13;;;17.27;;
31424;SDS011;18054;51.572;7.372;2024-03-22T06:00:45;31.20;;;16.30;;
31424;SDS011;18054;51.572;7.372;2024-03-22T06:03:11;29.67;;;15.85;;
31424;SDS011;18054;51.572;7.372;2024-03-22T06:05:38;29.27;;;15.20;;
31424;SDS011;18054;51.572;7.372;2024-03-22T06:08:05;27.58;;;15.55;;
31424;SDS011;18054;51.572;7.372;2024-03-22T06:10:32;31.10;;;15.85;;
31424;SDS011;18054;51.572;7.372;2024-03-22T06:12:58;30.25;;;16.50;;
31424;SDS011;18054;51.572;7.372;2024-03-22T06:15:24;30.80;;;15.40;;
31424;SDS011;18054;51.572;7.372;2024-03-22T06:17:50;29.55;;;15.55;;
31424;SDS011;18054;51.572;7.372;2024-03-22T06:20:16;41.67;;;16.35;;
31424;SDS011;18054;51.572;7.372;2024-03-22T06:22:44;32.35;;;15.32;;
31424;SDS011;18054;51.572;7.372;2024-03-22T06:25:10;28.83;;;14.50;;
31424;SDS011;18054;51.572;7.372;2024-03-22T06:27:36;30.67;;;15.00;;
31424;SDS011;18054;51.572;7.372;2024-03-22T06:30:02;28.88;;;14.85;;
31424;SDS011;18054;51.572;7.372;2024-03-22T06:32:29;32.40;;;15.60;;
31424;SDS011;18054;51.572;7.372;2024-03-22T06:34:54;29.58;;;14.40;;
31424;SDS011;18054;51.572;7.372;2024-03-22T06:37:21;25.15;;;14.48;;
31424;SDS011;18054;51.572;7.372;2024-03-22T06:39:48;26.23;;;14.27;;
31424;SDS011;18054;51.572;7.372;2024-03-22T06:44:40;28.63;;;13.88;;
31424;SDS011;18054;51.572;7.372;2024-03-22T06:47:07;33.55;;;14.45;;
31424;SDS011;18054;51.572;7.372;2024-03-22T06:49:32;27.30;;;14.80;;
31424;SDS011;18054;51.572;7.372;2024-03-22T06:51:59;28.45;;;14.07;;
31424;SDS011;18054;51.572;7.372;2024-03-22T06:54:24;24.27;;;14.52;;
31424;SDS011;18054;51.572;7.372;2024-03-22T06:56:53;29.23;;;13.25;;
31424;SDS011;18054;51.572;7.372;2024-03-22T06:59:18;27.02;;;13.27;;
31424;SDS011;18054;51.572;7.372;2024-03-22T07:01:48;22.88;;;12.50;;
31424;SDS011;18054;51.572;7.372;2024-03-22T07:04:14;26.65;;;14.73;;
31424;SDS011;18054;51.572;7.372;2024-03-22T07:06:40;25.77;;;13.05;;
31424;SDS011;18054;51.572;7.372;2024-03-22T07:09:07;20.35;;;12.63;;
31424;SDS011;18054;51.572;7.372;2024-03-22T07:11:34;28.38;;;14.02;;
31424;SDS011;18054;51.572;7.372;2024-03-22T07:14:01;25.88;;;13.85;;
31424;SDS011;18054;51.572;7.372;2024-03-22T07:16:27;25.00;;;13.15;;
31424;SDS011;18054;51.572;7.372;2024-03-22T07:18:53;26.40;;;13.95;;
31424;SDS011;18054;51.572;7.372;2024-03-22T07:21:20;23.58;;;12.80;;
31424;SDS011;18054;51.572;7.372;2024-03-22T07:23:45;20.60;;;12.95;;
31424;SDS011;18054;51.572;7.372;2024-03-22T07:26:12;23.40;;;13.10;;
31424;SDS011;18054;51.572;7.372;2024-03-22T07:28:38;27.98;;;12.50;;
31424;SDS011;18054;51.572;7.372;2024-03-22T07:31:06;26.30;;;14.00;;
31424;SDS011;18054;51.572;7.372;2024-03-22T07:33:31;26.20;;;13.38;;
31424;SDS011;18054;51.572;7.372;2024-03-22T07:36:01;27.70;;;13.32;;
31424;SDS011;18054;51.572;7.372;2024-03-22T07:38:26;27.10;;;13.65;;
31424;SDS011;18054;51.572;7.372;2024-03-22T07:40:53;26.00;;;14.15;;
31424;SDS011;18054;51.572;7.372;2024-03-22T07:43:19;25.15;;;14.48;;
31424;SDS011;18054;51.572;7.372;2024-03-22T07:45:45;31.02;;;13.43;;
31424;SDS011;18054;51.572;7.372;2024-03-22T07:48:12;28.73;;;13.70;;
31424;SDS011;18054;51.572;7.372;2024-03-22T07:53:04;22.63;;;13.93;;
31424;SDS011;18054;51.572;7.372;2024-03-22T07:55:30;29.73;;;14.13;;
31424;SDS011;18054;51.572;7.372;2024-03-22T07:57:56;21.38;;;13.77;;
31424;SDS011;18054;51.572;7.372;2024-03-22T08:00:23;28.02;;;13.30;;
31424;SDS011;18054;51.572;7.372;2024-03-22T08:02:50;24.95;;;13.73;;
31424;SDS011;18054;51.572;7.372;2024-03-22T08:05:18;31.30;;;14.32;;
31424;SDS011;18054;51.572;7.372;2024-03-22T08:10:11;26.42;;;14.48;;
31424;SDS011;18054;51.572;7.372;2024-03-22T08:12:36;33.45;;;14.05;;
31424;SDS011;18054;51.572;7.372;2024-03-22T08:15:03;21.92;;;11.98;;
31424;SDS011;18054;51.572;7.372;2024-03-22T08:17:29;23.13;;;13.43;;
31424;SDS011;18054;51.572;7.372;2024-03-22T08:19:55;30.75;;;12.88;;
31424;SDS011;18054;51.572;7.372;2024-03-22T08:22:22;30.77;;;14.07;;
31424;SDS011;18054;51.572;7.372;2024-03-22T08:24:49;19.05;;;12.02;;
31424;SDS011;18054;51.572;7.372;2024-03-22T08:27:15;26.17;;;13.05;;
31424;SDS011;18054;51.572;7.372;2024-03-22T08:29:41;21.85;;;12.20;;
31424;SDS011;18054;51.572;7.372;2024-03-22T08:32:07;21.95;;;12.98;;
31424;SDS011;18054;51.572;7.372;2024-03-22T08:34:33;24.83;;;12.93;;
31424;SDS011;18054;51.572;7.372;2024-03-22T08:36:59;23.23;;;12.55;;
31424;SDS011;18054;51.572;7.372;2024-03-22T08:39:27;19.00;;;12.68;;
31424;SDS011;18054;51.572;7.372;2024-03-22T08:41:52;20.92;;;11.95;;
31424;SDS011;18054;51.572;7.372;2024-03-22T08:44:20;27.55;;;13.38;;
31424;SDS011;18054;51.572;7.372;2024-03-22T08:46:46;25.17;;;11.50;;
31424;SDS011;18054;51.572;7.372;2024-03-22T08:49:12;20.10;;;12.50;;
31424;SDS011;18054;51.572;7.372;2024-03-22T08:51:39;25.45;;;11.30;;
31424;SDS011;18054;51.572;7.372;2024-03-22T08:54:06;23.83;;;11.85;;
31424;SDS011;18054;51.572;7.372;2024-03-22T08:56:33;20.35;;;11.07;;
31424;SDS011;18054;51.572;7.372;2024-03-22T09:01:25;17.85;;;10.45;;
31424;SDS011;18054;51.572;7.372;2024-03-22T09:03:52;19.92;;;11.57;;
31424;SDS011;18054;51.572;7.372;2024-03-22T09:06:17;23.73;;;10.70;;
31424;SDS011;18054;51.572;7.372;2024-03-22T09:08:45;20.50;;;11.27;;
31424;SDS011;18054;51.572;7.372;2024-03-22T09:11:10;17.10;;;11.13;;
31424;SDS011;18054;51.572;7.372;2024-03-22T09:13:39;17.55;;;10.45;;
31424;SDS011;18054;51.572;7.372;2024-03-22T09:16:05;47.88;;;12.57;;
31424;SDS011;18054;51.572;7.372;2024-03-22T09:18:31;17.75;;;10.60;;
31424;SDS011;18054;51.572;7.372;2024-03-22T09:20:57;21.38;;;9.93;;
31424;SDS011;18054;51.572;7.372;2024-03-22T09:23:23;25.80;;;10.55;;
31424;SDS011;18054;51.572;7.372;2024-03-22T09:25:49;19.77;;;10.43;;
31424;SDS011;18054;51.572;7.372;2024-03-22T09:28:16;22.80;;;11.70;;
31424;SDS011;18054;51.572;7.372;2024-03-22T09:30:43;21.40;;;10.50;;
31424;SDS011;18054;51.572;7.372;2024-03-22T09:33:10;20.33;;;10.18;;
31424;SDS011;18054;51.572;7.372;2024-03-22T09:35:36;18.05;;;9.10;;
31424;SDS011;18054;51.572;7.372;2024-03-22T09:38:02;19.45;;;10.00;;
31424;SDS011;18054;51.572;7.372;2024-03-22T09:40:28;18.98;;;10.02;;
31424;SDS011;18054;51.572;7.372;2024-03-22T09:42:55;26.42;;;10.90;;
31424;SDS011;18054;51.572;7.372;2024-03-22T09:45:23;19.27;;;11.50;;
31424;SDS011;18054;51.572;7.372;2024-03-22T09:47:52;24.83;;;10.02;;
31424;SDS011;18054;51.572;7.372;2024-03-22T09:50:18;15.30;;;9.02;;
31424;SDS011;18054;51.572;7.372;2024-03-22T09:52:44;23.92;;;9.45;;
31424;SDS011;18054;51.572;7.372;2024-03-22T09:55:10;22.60;;;10.73;;
31424;SDS011;18054;51.572;7.372;2024-03-22T09:57:39;14.15;;;7.95;;
31424;SDS011;18054;51.572;7.372;2024-03-22T10:00:06;17.80;;;9.77;;
31424;SDS011;18054;51.572;7.372;2024-03-22T10:02:36;16.20;;;9.27;;
31424;SDS011;18054;51.572;7.372;2024-03-22T10:05:05;16.95;;;8.68;;
31424;SDS011;18054;51.572;7.372;2024-03-22T10:07:32;16.80;;;9.50;;
31424;SDS011;18054;51.572;7.372;2024-03-22T10:09:57;17.65;;;10.00;;
31424;SDS011;18054;51.572;7.372;2024-03-22T10:12:24;21.85;;;9.73;;
31424;SDS011;18054;51.572;7.372;2024-03-22T10:14:52;17.67;;;9.70;;
31424;SDS011;18054;51.572;7.372;2024-03-22T10:19:44;17.73;;;9.70;;
31424;SDS011;18054;51.572;7.372;2024-03-22T10:22:12;20.83;;;10.48;;
31424;SDS011;18054;51.572;7.372;2024-03-22T10:24:37;25.70;;;11.77;;
31424;SDS011;18054;51.572;7.372;2024-03-22T10:27:04;16.60;;;9.85;;
31424;SDS011;18054;51.572;7.372;2024-03-22T10:29:29;18.75;;;10.18;;
31424;SDS011;18054;51.572;7.372;2024-03-22T10:31:56;16.98;;;10.38;;
31424;SDS011;18054;51.572;7.372;2024-03-22T10:34:22;26.63;;;9.82;;
31424;SDS011;18054;51.572;7.372;2024-03-22T10:36:48;23.25;;;11.40;;
31424;SDS011;18054;51.572;7.372;2024-03-22T10:39:17;28.58;;;12.00;;
31424;SDS011;18054;51.572;7.372;2024-03-22T10:41:44;21.73;;;12.13;;
31424;SDS011;18054;51.572;7.372;2024-03-22T10:44:10;20.88;;;11.05;;
31424;SDS011;18054;51.572;7.372;2024-03-22T10:46:40;19.73;;;11.18;;
31424;SDS011;18054;51.572;7.372;2024-03-22T10:49:08;24.40;;;10.75;;
31424;SDS011;18054;51.572;7.372;2024-03-22T10:51:35;20.77;;;11.48;;
31424;SDS011;18054;51.572;7.372;2024-03-22T10:54:01;26.13;;;10.73;;
31424;SDS011;18054;51.572;7.372;2024-03-22T10:56:31;18.65;;;9.35;;
31424;SDS011;18054;51.572;7.372;2024-03-22T10:58:57;24.93;;;11.30;;
31424;SDS011;18054;51.572;7.372;2024-03-22T11:01:29;18.67;;;9.48;;
31424;SDS011;18054;51.572;7.372;2024-03-22T11:04:05;20.52;;;11.02;;
31424;SDS011;18054;51.572;7.372;2024-03-22T11:06:32;20.63;;;10.13;;
31424;SDS011;18054;51.572;7.372;2024-03-22T11:08:59;20.52;;;10.85;;
31424;SDS011;18054;51.572;7.372;2024-03-22T11:13:53;21.15;;;10.35;;
31424;SDS011;18054;51.572;7.372;2024-03-22T11:16:21;19.42;;;10.82;;
31424;SDS011;18054;51.572;7.372;2024-03-22T11:18:47;34.67;;;11.57;;
31424;SDS011;18054;51.572;7.372;2024-03-22T11:21:14;18.70;;;10.50;;
31424;SDS011;18054;51.572;7.372;2024-03-22T11:23:39;22.48;;;11.77;;
31424;SDS011;18054;51.572;7.372;2024-03-22T11:26:06;20.23;;;11.60;;
31424;SDS011;18054;51.572;7.372;2024-03-22T11:28:33;28.85;;;11.82;;
31424;SDS011;18054;51.572;7.372;2024-03-22T11:31:01;20.13;;;11.27;;
31424;SDS011;18054;51.572;7.372;2024-03-22T11:33:26;22.90;;;11.77;;
31424;SDS011;18054;51.572;7.372;2024-03-22T11:35:53;22.90;;;11.30;;
31424;SDS011;18054;51.572;7.372;2024-03-22T11:38:19;23.00;;;11.68;;
31424;SDS011;18054;51.572;7.372;2024-03-22T11:40:45;19.75;;;11.02;;
31424;SDS011;18054;51.572;7.372;2024-03-22T11:43:11;24.35;;;10.05;;
31424;SDS011;18054;51.572;7.372;2024-03-22T11:45:40;23.23;;;11.45;;
31424;SDS011;18054;51.572;7.372;2024-03-22T11:48:07;22.95;;;11.27;;
31424;SDS011;18054;51.572;7.372;2024-03-22T11:50:34;18.48;;;9.52;;
31424;SDS011;18054;51.572;7.372;2024-03-22T11:52:59;18.73;;;9.20;;
31424;SDS011;18054;51.572;7.372;2024-03-22T11:55:26;18.73;;;9.20;;
31424;SDS011;18054;51.572;7.372;2024-03-22T11:57:53;18.98;;;10.25;;
31424;SDS011;18054;51.572;7.372;2024-03-22T12:00:19;21.13;;;10.68;;
31424;SDS011;18054;51.572;7.372;2024-03-22T12:02:45;29.52;;;10.40;;
31424;SDS011;18054;51.572;7.372;2024-03-22T12:05:13;20.67;;;10.00;;
31424;SDS011;18054;51.572;7.372;2024-03-22T12:07:39;23.87;;;9.93;;
31424;SDS011;18054;51.572;7.372;2024-03-22T12:10:06;29.67;;;10.95;;
31424;SDS011;18054;51.572;7.372;2024-03-22T12:12:32;20.58;;;11.75;;
31424;SDS011;18054;51.572;7.372;2024-03-22T12:14:59;26.92;;;12.63;;
31424;SDS011;18054;51.572;7.372;2024-03-22T12:17:25;27.95;;;13.05;;
31424;SDS011;18054;51.572;7.372;2024-03-22T12:19:51;27.42;;;13.82;;
31424;SDS011;18054;51.572;7.372;2024-03-22T12:22:19;24.40;;;13.13;;
31424;SDS011;18054;51.572;7.372;2024-03-22T12:24:46;27.27;;;15.40;;
31424;SDS011;18054;51.572;7.372;2024-03-22T12:27:11;24.42;;;14.25;;
31424;SDS011;18054;51.572;7.372;2024-03-22T12:29:38;26.80;;;13.70;;
31424;SDS011;18054;51.572;7.372;2024-03-22T12:32:03;25.33;;;14.68;;
31424;SDS011;18054;51.572;7.372;2024-03-22T12:34:30;28.25;;;15.75;;
31424;SDS011;18054;51.572;7.372;2024-03-22T12:36:57;22.63;;;14.05;;
31424;SDS011;18054;51.572;7.372;2024-03-22T12:39:25;25.00;;;14.03;;
31424;SDS011;18054;51.572;7.372;2024-03-22T12:41:51;22.95;;;12.77;;
31424;SDS011;18054;51.572;7.372;2024-03-22T12:44:17;21.77;;;13.10;;
31424;SDS011;18054;51.572;7.372;2024-03-22T12:46:43;24.08;;;13.35;;
31424;SDS011;18054;51.572;7.372;2024-03-22T12:49:10;20.43;;;14.40;;
31424;SDS011;18054;51.572;7.372;2024-03-22T12:51:35;25.08;;;13.98;;
31424;SDS011;18054;51.572;7.372;2024-03-22T12:54:03;23.35;;;14.07;;
31424;SDS011;18054;51.572;7.372;2024-03-22T12:56:30;21.00;;;12.85;;
31424;SDS011;18054;51.572;7.372;2024-03-22T12:58:58;21.35;;;14.57;;
31424;SDS011;18054;51.572;7.372;2024-03-22T13:01:23;20.98;;;13.35;;
31424;SDS011;18054;51.572;7.372;2024-03-22T13:03:50;22.10;;;12.95;;
31424;SDS011;18054;51.572;7.372;2024-03-22T13:06:15;25.00;;;14.10;;
31424;SDS011;18054;51.572;7.372;2024-03-22T13:08:42;28.17;;;15.30;;
31424;SDS011;18054;51.572;7.372;2024-03-22T13:11:07;24.23;;;13.50;;
31424;SDS011;18054;51.572;7.372;2024-03-22T13:13:36;22.97;;;14.53;;
31424;SDS011;18054;51.572;7.372;2024-03-22T13:16:02;28.42;;;14.77;;
31424;SDS011;18054;51.572;7.372;2024-03-22T13:18:28;27.77;;;15.05;;
31424;SDS011;18054;51.572;7.372;2024-03-22T13:20:54;29.10;;;14.40;;
31424;SDS011;18054;51.572;7.372;2024-03-22T13:23:20;23.02;;;14.82;;
31424;SDS011;18054;51.572;7.372;2024-03-22T13:25:46;23.58;;;15.23;;
31424;SDS011;18054;51.572;7.372;2024-03-22T13:28:12;29.27;;;15.73;;
31424;SDS011;18054;51.572;7.372;2024-03-22T13:30:39;24.55;;;16.08;;
31424;SDS011;18054;51.572;7.372;2024-03-22T13:33:07;26.48;;;17.25;;
31424;SDS011;18054;51.572;7.372;2024-03-22T13:35:33;30.13;;;18.20;;
31424;SDS011;18054;51.572;7.372;2024-03-22T13:38:00;27.67;;;18.00;;
31424;SDS011;18054;51.572;7.372;2024-03-22T13:40:26;25.00;;;18.02;;
31424;SDS011;18054;51.572;7.372;2024-03-22T13:42:52;31.70;;;17.42;;
31424;SDS011;18054;51.572;7.372;2024-03-22T13:45:18;30.02;;;19.45;;
31424;SDS011;18054;51.572;7.372;2024-03-22T13:47:46;31.80;;;18.75;;
31424;SDS011;18054;51.572;7.372;2024-03-22T13:50:11;32.30;;;18.27;;
31424;SDS011;18054;51.572;7.372;2024-03-22T13:52:38;29.85;;;18.70;;
31424;SDS011;18054;51.572;7.372;2024-03-22T13:55:04;30.27;;;21.55;;
31424;SDS011;18054;51.572;7.372;2024-03-22T13:57:30;32.83;;;22.20;;
31424;SDS011;18054;51.572;7.372;2024-03-22T13:59:56;33.30;;;21.05;;
31424;SDS011;18054;51.572;7.372;2024-03-22T14:02:23;45.72;;;23.33;;
31424;SDS011;18054;51.572;7.372;2024-03-22T14:04:50;43.47;;;28.02;;
31424;SDS011;18054;51.572;7.372;2024-03-22T14:07:17;42.88;;;28.40;;
31424;SDS011;18054;51.572;7.372;2024-03-22T14:09:43;44.47;;;27.00;;
31424;SDS011;18054;51.572;7.372;2024-03-22T14:12:10;41.92;;;29.27;;
31424;SDS011;18054;51.572;7.372;2024-03-22T14:14:36;47.17;;;26.27;;
31424;SDS011;18054;51.572;7.372;2024-03-22T14:17:03;45.33;;;28.75;;
31424;SDS011;18054;51.572;7.372;2024-03-22T14:19:29;39.10;;;23.77;;
31424;SDS011;18054;51.572;7.372;2024-03-22T14:21:56;46.22;;;28.73;;
31424;SDS011;18054;51.572;7.372;2024-03-22T14:24:22;44.17;;;29.10;;
31424;SDS011;18054;51.572;7.372;2024-03-22T14:26:48;45.10;;;28.05;;
31424;SDS011;18054;51.572;7.372;2024-03-22T14:29:15;46.38;;;28.30;;
31424;SDS011;18054;51.572;7.372;2024-03-22T14:31:42;41.88;;;26.20;;
31424;SDS011;18054;51.572;7.372;2024-03-22T14:34:08;39.83;;;27.83;;
31424;SDS011;18054;51.572;7.372;2024-03-22T14:36:34;55.13;;;31.23;;
31424;SDS011;18054;51.572;7.372;2024-03-22T14:39:01;56.83;;;34.85;;
31424;SDS011;18054;51.572;7.372;2024-03-22T14:41:30;57.38;;;37.10;;
31424;SDS011;18054;51.572;7.372;2024-03-22T14:43:56;63.25;;;39.85;;
31424;SDS011;18054;51.572;7.372;2024-03-22T14:46:22;63.83;;;40.03;;
31424;SDS011;18054;51.572;7.372;2024-03-22T14:48:50;60.75;;;40.15;;